sensor_id;sensor_type;location;lat;lon;timestamp;pressure;altitude;pressure_sealevel;temperature;humidity
22261;BME280;11299;43.202;27.920;2023-06-19T00:01:41;119893.13;;;20.03;100.00
22261;BME280;11299;43.202;27.920;2023-06-19T00:04:07;119555.25;;;18.31;100.00
22261;BME280;11299;43.202;27.920;2023-06-19T00:06:33;120228.69;;;19.90;100.00
22261;BME280;11299;43.202;27.920;2023-06-19T00:08:58;119724.13;;;19.17;100.00
22261;BME280;11299;43.202;27.920;2023-06-19T00:11:24;119740.94;;;19.26;100.00
22261;BME280;11299;43.202;27.920;2023-06-19T00:13:49;120607.84;;;19.99;100.00
22261;BME280;11299;43.202;27.920;2023-06-19T00:16:15;120628.75;;;20.10;100.00
22261;BME280;11299;43.202;27.920;2023-06-19T00:18:41;121284.63;;;19.76;100.00
22261;BME280;11299;43.202;27.920;2023-06-19T00:21:07;121609.84;;;19.58;100.00
22261;BME280;11299;43.202;27.920;2023-06-19T00:23:33;121971.09;;;19.58;100.00
22261;BME280;11299;43.202;27.920;2023-06-19T00:25:59;122087.78;;;20.16;100.00
22261;BME280;11299;43.202;27.920;2023-06-19T00:28:27;122469.66;;;20.26;100.00
22261;BME280;11299;43.202;27.920;2023-06-19T00:30:53;122823.28;;;20.22;100.00
22261;BME280;11299;43.202;27.920;2023-06-19T00:33:18;123196.19;;;20.28;100.00
22261;BME280;11299;43.202;27.920;2023-06-19T00:35:44;123394.06;;;19.47;100.00
22261;BME280;11299;43.202;27.920;2023-06-19T00:38:09;123437.78;;;19.68;100.00
22261;BME280;11299;43.202;27.920;2023-06-19T00:40:35;123207.34;;;20.33;100.00
22261;BME280;11299;43.202;27.920;2023-06-19T00:43:01;122501.94;;;20.42;100.00
22261;BME280;11299;43.202;27.920;2023-06-19T00:45:27;122498.94;;;20.41;100.00
22261;BME280;11299;43.202;27.920;2023-06-19T00:47:53;122031.44;;;19.88;100.00
22261;BME280;11299;43.202;27.920;2023-06-19T00:50:20;122396.94;;;19.90;100.00
22261;BME280;11299;43.202;27.920;2023-06-19T00:52:47;123230.72;;;20.45;100.00
22261;BME280;11299;43.202;27.920;2023-06-19T00:55:13;123228.66;;;20.44;100.00
22261;BME280;11299;43.202;27.920;2023-06-19T00:57:40;123164.66;;;20.12;100.00
22261;BME280;11299;43.202;27.920;2023-06-19T01:00:06;123216.50;;;20.38;100.00
22261;BME280;11299;43.202;27.920;2023-06-19T01:02:34;122542.34;;;20.63;100.00
22261;BME280;11299;43.202;27.920;2023-06-19T01:05:00;121430.75;;;20.49;100.00
22261;BME280;11299;43.202;27.920;2023-06-19T01:10:02;121811.56;;;20.59;100.00
22261;BME280;11299;43.202;27.920;2023-06-19T01:12:38;121713.19;;;20.10;100.00
22261;BME280;11299;43.202;27.920;2023-06-19T01:15:07;122562.13;;;18.93;100.00
22261;BME280;11299;43.202;27.920;2023-06-19T01:17:35;123158.59;;;20.09;100.00
22261;BME280;11299;43.202;27.920;2023-06-19T01:20:01;122922.50;;;20.72;100.00
22261;BME280;11299;43.202;27.920;2023-06-19T01:22:32;123349.22;;;19.25;100.00
22261;BME280;11299;43.202;27.920;2023-06-19T01:24:57;123264.22;;;20.61;100.00
22261;BME280;11299;43.202;27.920;2023-06-19T01:27:24;123560.00;;;20.29;100.00
22261;BME280;11299;43.202;27.920;2023-06-19T01:29:51;123910.63;;;20.23;100.00
22261;BME280;11299;43.202;27.920;2023-06-19T01:34:54;123923.91;;;20.30;100.00
22261;BME280;11299;43.202;27.920;2023-06-19T01:37:24;124261.22;;;20.18;100.00
22261;BME280;11299;43.202;27.920;2023-06-19T01:39:54;124182.34;;;19.79;100.00
22261;BME280;11299;43.202;27.920;2023-06-19T01:42:21;123991.31;;;20.63;100.00
22261;BME280;11299;43.202;27.920;2023-06-19T01:44:47;123901.47;;;20.19;100.00
22261;BME280;11299;43.202;27.920;2023-06-19T01:47:12;124751.53;;;20.81;100.00
22261;BME280;11299;43.202;27.920;2023-06-19T01:49:38;123967.81;;;20.51;100.00
22261;BME280;11299;43.202;27.920;2023-06-19T01:52:04;122791.84;;;20.07;100.00
22261;BME280;11299;43.202;27.920;2023-06-19T01:54:30;121850.69;;;20.79;100.00
22261;BME280;11299;43.202;27.920;2023-06-19T01:56:57;121839.66;;;20.73;100.00
22261;BME280;11299;43.202;27.920;2023-06-19T01:59:22;122222.69;;;20.84;100.00
22261;BME280;11299;43.202;27.920;2023-06-19T02:01:47;122236.81;;;20.91;100.00
22261;BME280;11299;43.202;27.920;2023-06-19T02:04:13;121832.63;;;20.70;100.00
22261;BME280;11299;43.202;27.920;2023-06-19T02:06:38;121855.72;;;20.81;100.00
22261;BME280;11299;43.202;27.920;2023-06-19T02:09:04;122187.50;;;20.66;100.00
22261;BME280;11299;43.202;27.920;2023-06-19T02:11:29;122593.84;;;20.88;100.00
22261;BME280;11299;43.202;27.920;2023-06-19T02:13:55;122890.09;;;20.55;100.00
22261;BME280;11299;43.202;27.920;2023-06-19T02:16:20;122544.34;;;20.63;100.00
22261;BME280;11299;43.202;27.920;2023-06-19T02:18:46;122966.03;;;20.93;100.00
22261;BME280;11299;43.202;27.920;2023-06-19T02:21:11;122945.81;;;20.83;100.00
22261;BME280;11299;43.202;27.920;2023-06-19T02:23:37;123323.13;;;20.91;100.00
22261;BME280;11299;43.202;27.920;2023-06-19T02:26:02;124050.59;;;20.92;100.00
22261;BME280;11299;43.202;27.920;2023-06-19T02:28:28;124659.03;;;20.35;100.00
22261;BME280;11299;43.202;27.920;2023-06-19T02:30:54;125135.47;;;20.91;100.00
22261;BME280;11299;43.202;27.920;2023-06-19T02:33:19;125815.63;;;20.70;100.00
22261;BME280;11299;43.202;27.920;2023-06-19T02:35:45;125502.97;;;20.94;100.00
22261;BME280;11299;43.202;27.920;2023-06-19T02:38:10;124774.13;;;20.92;100.00
22261;BME280;11299;43.202;27.920;2023-06-19T02:40:38;125144.72;;;20.96;100.00
22261;BME280;11299;43.202;27.920;2023-06-19T02:43:03;125847.78;;;20.85;100.00
22261;BME280;11299;43.202;27.920;2023-06-19T02:45:29;126226.81;;;20.93;100.00
22261;BME280;11299;43.202;27.920;2023-06-19T02:47:54;125030.34;;;20.40;100.00
22261;BME280;11299;43.202;27.920;2023-06-19T02:50:20;124746.38;;;20.78;100.00
22261;BME280;11299;43.202;27.920;2023-06-19T02:52:45;124767.97;;;20.89;100.00
22261;BME280;11299;43.202;27.920;2023-06-19T02:55:11;125739.97;;;20.33;100.00
22261;BME280;11299;43.202;27.920;2023-06-19T02:57:36;125730.66;;;20.28;100.00
22261;BME280;11299;43.202;27.920;2023-06-19T03:00:02;125494.69;;;20.90;100.00
22261;BME280;11299;43.202;27.920;2023-06-19T03:02:31;125482.28;;;20.84;100.00
22261;BME280;11299;43.202;27.920;2023-06-19T03:04:56;126213.31;;;20.87;100.00
22261;BME280;11299;43.202;27.920;2023-06-19T03:07:22;127313.38;;;20.93;100.00
22261;BME280;11299;43.202;27.920;2023-06-19T03:09:47;127000.94;;;19.43;100.00
22261;BME280;11299;43.202;27.920;2023-06-19T03:12:12;126150.94;;;20.56;100.00
22261;BME280;11299;43.202;27.920;2023-06-19T03:14:38;126577.84;;;20.88;100.00
22261;BME280;11299;43.202;27.920;2023-06-19T03:17:05;126600.81;;;20.99;100.00
22261;BME280;11299;43.202;27.920;2023-06-19T03:19:30;127265.13;;;20.70;100.00
22261;BME280;11299;43.202;27.920;2023-06-19T03:21:56;127195.91;;;20.36;100.00
22261;BME280;11299;43.202;27.920;2023-06-19T03:24:21;127314.41;;;20.93;100.00
22261;BME280;11299;43.202;27.920;2023-06-19T03:26:47;126876.56;;;20.57;100.00
22261;BME280;11299;43.202;27.920;2023-06-19T03:29:12;126881.78;;;20.59;100.00
22261;BME280;11299;43.202;27.920;2023-06-19T03:31:38;126942.44;;;20.89;100.00
22261;BME280;11299;43.202;27.920;2023-06-19T03:34:05;125377.91;;;20.33;100.00
22261;BME280;11299;43.202;27.920;2023-06-19T03:36:30;124404.66;;;20.88;100.00
22261;BME280;11299;43.202;27.920;2023-06-19T03:38:56;123712.88;;;21.04;100.00
22261;BME280;11299;43.202;27.920;2023-06-19T03:41:21;122563.53;;;20.73;100.00
22261;BME280;11299;43.202;27.920;2023-06-19T03:43:47;121540.84;;;21.05;100.00
22261;BME280;11299;43.202;27.920;2023-06-19T03:46:12;122937.69;;;20.79;100.00
22261;BME280;11299;43.202;27.920;2023-06-19T03:48:38;123322.75;;;19.12;100.00
22261;BME280;11299;43.202;27.920;2023-06-19T03:51:03;124397.50;;;20.85;100.00
22261;BME280;11299;43.202;27.920;2023-06-19T03:53:28;124243.78;;;20.09;100.00
22261;BME280;11299;43.202;27.920;2023-06-19T03:55:54;124774.13;;;20.92;100.00
22261;BME280;11299;43.202;27.920;2023-06-19T03:58:20;122183.47;;;20.64;100.00
22261;BME280;11299;43.202;27.920;2023-06-19T04:00:46;120788.91;;;20.91;100.00
22261;BME280;11299;43.202;27.920;2023-06-19T04:03:11;120821.78;;;21.07;100.00
22261;BME280;11299;43.202;27.920;2023-06-19T04:05:37;120100.81;;;21.09;100.00
22261;BME280;11299;43.202;27.920;2023-06-19T04:08:04;120061.22;;;20.89;100.00
22261;BME280;11299;43.202;27.920;2023-06-19T04:10:29;118307.19;;;21.17;100.00
22261;BME280;11299;43.202;27.920;2023-06-19T04:12:55;118287.69;;;21.07;100.00
22261;BME280;11299;43.202;27.920;2023-06-19T04:15:21;116489.09;;;21.12;100.00
22261;BME280;11299;43.202;27.920;2023-06-19T04:17:46;116509.22;;;21.22;100.00
22261;BME280;11299;43.202;27.920;2023-06-19T04:20:12;117580.78;;;21.15;100.00
22261;BME280;11299;43.202;27.920;2023-06-19T04:22:38;115785.06;;;21.22;100.00
22261;BME280;11299;43.202;27.920;2023-06-19T04:25:06;115054.41;;;21.18;100.00
22261;BME280;11299;43.202;27.920;2023-06-19T04:27:31;115436.84;;;21.29;100.00
22261;BME280;11299;43.202;27.920;2023-06-19T04:29:57;114337.22;;;21.21;100.00
22261;BME280;11299;43.202;27.920;2023-06-19T04:32:22;112182.34;;;21.28;100.00
22261;BME280;11299;43.202;27.920;2023-06-19T04:34:48;114235.53;;;20.67;100.00
22261;BME280;11299;43.202;27.920;2023-06-19T04:37:14;114276.00;;;20.88;100.00
22261;BME280;11299;43.202;27.920;2023-06-19T04:39:45;114287.28;;;20.94;100.00
22261;BME280;11299;43.202;27.920;2023-06-19T04:42:13;105515.72;;;20.29;100.00
22261;BME280;11299;43.202;27.920;2023-06-19T04:44:47;107743.72;;;20.68;100.00
22261;BME280;11299;43.202;27.920;2023-06-19T04:47:13;109501.19;;;20.42;100.00
22261;BME280;11299;43.202;27.920;2023-06-19T04:49:39;110684.84;;;20.99;100.00
22261;BME280;11299;43.202;27.920;2023-06-19T04:52:05;106971.81;;;20.38;100.00
22261;BME280;11299;43.202;27.920;2023-06-19T04:54:30;101352.19;;;21.22;100.00
22261;BME280;11299;43.202;27.920;2023-06-19T04:56:58;94847.16;;;21.03;100.00
22261;BME280;11299;43.202;27.920;2023-06-19T04:59:23;95425.72;;;20.13;100.00
22261;BME280;11299;43.202;27.920;2023-06-19T05:01:49;96238.63;;;20.74;100.00
22261;BME280;11299;43.202;27.920;2023-06-19T05:04:18;89078.22;;;20.86;100.00
22261;BME280;11299;43.202;27.920;2023-06-19T05:06:44;80465.31;;;20.73;100.00
22261;BME280;11299;43.202;27.920;2023-06-19T05:09:09;81637.97;;;21.47;100.00
22261;BME280;11299;43.202;27.920;2023-06-19T05:11:36;76989.94;;;21.51;100.00
22261;BME280;11299;43.202;27.920;2023-06-19T05:14:02;76984.88;;;21.47;100.00
22261;BME280;11299;43.202;27.920;2023-06-19T05:16:28;77448.00;;;19.49;100.00
22261;BME280;11299;43.202;27.920;2023-06-19T05:18:53;78038.78;;;21.32;100.00
22261;BME280;11299;43.202;27.920;2023-06-19T05:21:18;71193.63;;;20.85;100.00
22261;BME280;11299;43.202;27.920;2023-06-19T05:23:44;71965.41;;;21.34;100.00
22261;BME280;11299;43.202;27.920;2023-06-19T05:26:12;69112.16;;;21.36;100.00
22261;BME280;11299;43.202;27.920;2023-06-19T05:28:39;60822.69;;;20.43;100.00
22261;BME280;11299;43.202;27.920;2023-06-19T05:31:04;54445.66;;;20.59;100.00
22261;BME280;11299;43.202;27.920;2023-06-19T05:33:30;55538.91;;;20.91;100.00
22261;BME280;11299;43.202;27.920;2023-06-19T05:35:55;54481.38;;;20.99;100.00
22261;BME280;11299;43.202;27.920;2023-06-19T05:38:21;58457.66;;;21.70;100.00
22261;BME280;11299;43.202;27.920;2023-06-19T05:40:48;50277.56;;;21.65;100.00
22261;BME280;11299;43.202;27.920;2023-06-19T05:43:15;45671.09;;;21.72;100.00
22261;BME280;11299;43.202;27.920;2023-06-19T05:45:40;40005.06;;;21.75;100.00
22261;BME280;11299;43.202;27.920;2023-06-19T05:48:06;29050.16;;;21.75;100.00
22261;BME280;11299;43.202;27.920;2023-06-19T05:50:31;25878.06;;;21.79;100.00
22261;BME280;11299;43.202;27.920;2023-06-19T05:52:57;18496.34;;;22.18;100.00
22261;BME280;11299;43.202;27.920;2023-06-19T05:55:22;17087.06;;;22.12;100.00
22261;BME280;11299;43.202;27.920;2023-06-19T05:57:50;3748.63;;;22.28;100.00
22261;BME280;11299;43.202;27.920;2023-06-19T06:00:16;2347.19;;;22.28;100.00
22261;BME280;11299;43.202;27.920;2023-06-19T06:02:41;-21389.88;;;22.54;100.00
22261;BME280;11299;43.202;27.920;2023-06-19T06:05:07;-21394.41;;;22.69;100.00
22261;BME280;11299;43.202;27.920;2023-06-19T06:07:34;-21392.38;;;22.62;100.00
22261;BME280;11299;43.202;27.920;2023-06-19T06:10:00;-21398.28;;;22.81;100.00
22261;BME280;11299;43.202;27.920;2023-06-19T06:12:25;-21389.72;;;22.54;100.00
22261;BME280;11299;43.202;27.920;2023-06-19T06:14:51;-21401.88;;;22.93;100.00
22261;BME280;11299;43.202;27.920;2023-06-19T06:17:16;-21363.56;;;21.69;100.00
22261;BME280;11299;43.202;27.920;2023-06-19T06:19:42;-21405.59;;;23.05;100.00
22261;BME280;11299;43.202;27.920;2023-06-19T06:22:07;-21415.09;;;23.35;100.00
22261;BME280;11299;43.202;27.920;2023-06-19T06:24:33;-21352.34;;;21.33;100.00
22261;BME280;11299;43.202;27.920;2023-06-19T06:26:58;-21404.34;;;23.01;100.00
22261;BME280;11299;43.202;27.920;2023-06-19T06:29:24;-21425.19;;;23.68;100.00
22261;BME280;11299;43.202;27.920;2023-06-19T06:31:50;-21429.22;;;23.81;100.00
22261;BME280;11299;43.202;27.920;2023-06-19T06:34:18;-21424.88;;;23.67;100.00
22261;BME280;11299;43.202;27.920;2023-06-19T06:36:44;-21438.88;;;24.12;100.00
22261;BME280;11299;43.202;27.920;2023-06-19T06:39:10;-21445.09;;;24.33;100.00
22261;BME280;11299;43.202;27.920;2023-06-19T06:41:36;-21430.47;;;23.85;100.00
22261;BME280;11299;43.202;27.920;2023-06-19T06:44:01;-21436.06;;;24.03;100.00
22261;BME280;11299;43.202;27.920;2023-06-19T06:46:27;-21451.31;;;24.53;100.00
22261;BME280;11299;43.202;27.920;2023-06-19T06:48:53;-21445.72;;;24.35;100.00
22261;BME280;11299;43.202;27.920;2023-06-19T06:51:18;-21439.19;;;24.13;100.00
22261;BME280;11299;43.202;27.920;2023-06-19T06:53:44;-21462.03;;;24.87;100.00
22261;BME280;11299;43.202;27.920;2023-06-19T06:56:10;-21459.53;;;24.79;100.00
22261;BME280;11299;43.202;27.920;2023-06-19T06:58:35;-21468.38;;;25.08;100.00
22261;BME280;11299;43.202;27.920;2023-06-19T07:01:01;-21450.69;;;24.51;100.00
22261;BME280;11299;43.202;27.920;2023-06-19T07:03:27;-21469.63;;;25.12;100.00
22261;BME280;11299;43.202;27.920;2023-06-19T07:05:55;-21469.63;;;25.12;100.00
22261;BME280;11299;43.202;27.920;2023-06-19T07:08:20;-21483.91;;;25.58;100.00
22261;BME280;11299;43.202;27.920;2023-06-19T07:10:46;-21482.34;;;25.53;100.00
22261;BME280;11299;43.202;27.920;2023-06-19T07:13:11;-21481.44;;;25.50;100.00
22261;BME280;11299;43.202;27.920;2023-06-19T07:15:37;-21480.34;;;25.47;100.00
22261;BME280;11299;43.202;27.920;2023-06-19T07:18:02;-21480.97;;;25.49;100.00
22261;BME280;11299;43.202;27.920;2023-06-19T07:20:28;-21464.19;;;24.94;100.00
22261;BME280;11299;43.202;27.920;2023-06-19T07:22:53;-21473.97;;;25.26;100.00
22261;BME280;11299;43.202;27.920;2023-06-19T07:25:19;-21473.03;;;25.23;100.00
22261;BME280;11299;43.202;27.920;2023-06-19T07:27:45;-21462.81;;;24.90;100.00
22261;BME280;11299;43.202;27.920;2023-06-19T07:30:11;-21468.06;;;25.07;100.00
22261;BME280;11299;43.202;27.920;2023-06-19T07:32:37;-21468.06;;;25.07;100.00
22261;BME280;11299;43.202;27.920;2023-06-19T07:35:04;-21486.09;;;25.65;100.00
22261;BME280;11299;43.202;27.920;2023-06-19T07:37:29;-21479.88;;;25.45;100.00
22261;BME280;11299;43.202;27.920;2023-06-19T07:39:55;-21479.56;;;25.44;100.00
22261;BME280;11299;43.202;27.920;2023-06-19T07:42:21;-21490.28;;;25.79;100.00
22261;BME280;11299;43.202;27.920;2023-06-19T07:44:46;-21490.28;;;25.79;100.00
22261;BME280;11299;43.202;27.920;2023-06-19T07:47:12;-21492.75;;;25.87;100.00
22261;BME280;11299;43.202;27.920;2023-06-19T07:49:38;-21497.72;;;26.03;100.00
22261;BME280;11299;43.202;27.920;2023-06-19T07:52:04;-21501.28;;;26.15;100.00
22261;BME280;11299;43.202;27.920;2023-06-19T07:54:30;-21443.38;;;24.27;100.00
22261;BME280;11299;43.202;27.920;2023-06-19T07:56:56;-21432.81;;;23.93;100.00
22261;BME280;11299;43.202;27.920;2023-06-19T07:59:22;-21460.31;;;24.82;100.00
22261;BME280;11299;43.202;27.920;2023-06-19T08:01:48;-21464.66;;;24.96;100.00
22261;BME280;11299;43.202;27.920;2023-06-19T08:04:14;-21481.13;;;25.49;100.00
22261;BME280;11299;43.202;27.920;2023-06-19T08:06:39;-21476.78;;;25.35;100.00
22261;BME280;11299;43.202;27.920;2023-06-19T08:09:05;-21465.75;;;24.99;100.00
22261;BME280;11299;43.202;27.920;2023-06-19T08:11:30;-21486.09;;;25.65;100.00
22261;BME280;11299;43.202;27.920;2023-06-19T08:13:56;-21492.91;;;25.87;100.00
22261;BME280;11299;43.202;27.920;2023-06-19T08:16:21;-21460.94;;;24.84;100.00
22261;BME280;11299;43.202;27.920;2023-06-19T08:18:47;-21487.63;;;25.70;100.00
22261;BME280;11299;43.202;27.920;2023-06-19T08:21:13;-21470.41;;;25.14;100.00
22261;BME280;11299;43.202;27.920;2023-06-19T08:23:39;-21486.41;;;25.66;100.00
22261;BME280;11299;43.202;27.920;2023-06-19T08:26:05;-21485.94;;;25.65;100.00
22261;BME280;11299;43.202;27.920;2023-06-19T08:28:33;-21466.22;;;25.01;100.00
22261;BME280;11299;43.202;27.920;2023-06-19T08:30:59;-21487.47;;;25.70;100.00
22261;BME280;11299;43.202;27.920;2023-06-19T08:33:24;-21486.25;;;25.66;100.00
22261;BME280;11299;43.202;27.920;2023-06-19T08:35:50;-21466.06;;;25.00;100.00
22261;BME280;11299;43.202;27.920;2023-06-19T08:38:15;-21474.59;;;25.28;100.00
22261;BME280;11299;43.202;27.920;2023-06-19T08:40:41;-21473.81;;;25.26;100.00
22261;BME280;11299;43.202;27.920;2023-06-19T08:43:07;-21462.19;;;24.88;100.00
22261;BME280;11299;43.202;27.920;2023-06-19T08:45:33;-21480.50;;;25.47;100.00
22261;BME280;11299;43.202;27.920;2023-06-19T08:48:00;-21476.47;;;25.34;100.00
22261;BME280;11299;43.202;27.920;2023-06-19T08:50:27;-21467.16;;;25.04;100.00
22261;BME280;11299;43.202;27.920;2023-06-19T08:52:54;-21485.31;;;25.63;100.00
22261;BME280;11299;43.202;27.920;2023-06-19T08:55:20;-21477.38;;;25.37;100.00
22261;BME280;11299;43.202;27.920;2023-06-19T08:57:48;-21479.25;;;25.43;100.00
22261;BME280;11299;43.202;27.920;2023-06-19T09:00:26;-21479.88;;;25.45;100.00
22261;BME280;11299;43.202;27.920;2023-06-19T09:02:52;-21491.97;;;25.84;100.00
22261;BME280;11299;43.202;27.920;2023-06-19T09:05:23;-21472.72;;;25.22;100.00
22261;BME280;11299;43.202;27.920;2023-06-19T09:07:57;-21480.34;;;25.47;100.00
22261;BME280;11299;43.202;27.920;2023-06-19T09:10:24;-21481.59;;;25.51;100.00
22261;BME280;11299;43.202;27.920;2023-06-19T09:12:57;-21492.28;;;25.85;100.00
22261;BME280;11299;43.202;27.920;2023-06-19T09:15:27;-21482.66;;;25.54;100.00
22261;BME280;11299;43.202;27.920;2023-06-19T09:18:07;-21496.16;;;25.98;100.00
22261;BME280;11299;43.202;27.920;2023-06-19T09:20:42;-21476.63;;;25.35;100.00
22261;BME280;11299;43.202;27.920;2023-06-19T09:23:13;-21487.47;;;25.70;100.00
22261;BME280;11299;43.202;27.920;2023-06-19T09:25:48;-21508.59;;;26.38;100.00
22261;BME280;11299;43.202;27.920;2023-06-19T09:28:32;-21497.41;;;26.02;100.00
22261;BME280;11299;43.202;27.920;2023-06-19T09:30:59;-21514.94;;;26.59;100.00
22261;BME280;11299;43.202;27.920;2023-06-19T09:33:27;-21504.41;;;26.25;100.00
22261;BME280;11299;43.202;27.920;2023-06-19T09:35:54;-21505.00;;;26.27;100.00
22261;BME280;11299;43.202;27.920;2023-06-19T09:38:23;-21518.03;;;26.69;100.00
22261;BME280;11299;43.202;27.920;2023-06-19T09:40:50;-21511.53;;;26.48;100.00
22261;BME280;11299;43.202;27.920;2023-06-19T09:43:23;-21525.47;;;26.93;100.00
22261;BME280;11299;43.202;27.920;2023-06-19T09:45:49;-21528.88;;;27.04;100.00
22261;BME280;11299;43.202;27.920;2023-06-19T09:48:19;-21525.78;;;26.94;100.00
22261;BME280;11299;43.202;27.920;2023-06-19T09:50:48;-21511.22;;;26.47;100.00
22261;BME280;11299;43.202;27.920;2023-06-19T09:53:17;-21523.94;;;26.88;100.00
22261;BME280;11299;43.202;27.920;2023-06-19T09:55:43;-21513.06;;;26.53;100.00
22261;BME280;11299;43.202;27.920;2023-06-19T09:58:09;-21516.94;;;26.65;100.00
22261;BME280;11299;43.202;27.920;2023-06-19T10:00:35;-21519.28;;;26.73;100.00
22261;BME280;11299;43.202;27.920;2023-06-19T10:03:02;-21519.28;;;26.73;100.00
22261;BME280;11299;43.202;27.920;2023-06-19T10:05:32;-21520.84;;;26.78;100.00
22261;BME280;11299;43.202;27.920;2023-06-19T10:07:58;-21533.69;;;27.20;100.00
22261;BME280;11299;43.202;27.920;2023-06-19T10:10:28;-21533.06;;;27.18;100.00
22261;BME280;11299;43.202;27.920;2023-06-19T10:12:56;-21535.72;;;27.26;100.00
22261;BME280;11299;43.202;27.920;2023-06-19T10:15:29;-21527.34;;;26.99;100.00
22261;BME280;11299;43.202;27.920;2023-06-19T10:18:05;-21529.50;;;27.06;100.00
22261;BME280;11299;43.202;27.920;2023-06-19T10:20:32;-21536.94;;;27.30;100.00
22261;BME280;11299;43.202;27.920;2023-06-19T10:25:26;-21576.28;;;28.58;100.00
22261;BME280;11299;43.202;27.920;2023-06-19T10:27:52;-21574.72;;;28.53;100.00
22261;BME280;11299;43.202;27.920;2023-06-19T10:30:21;-21598.56;;;29.30;98.83
22261;BME280;11299;43.202;27.920;2023-06-19T10:32:48;-21631.00;;;30.36;96.12
22261;BME280;11299;43.202;27.920;2023-06-19T10:35:15;-21627.47;;;30.24;97.05
22261;BME280;11299;43.202;27.920;2023-06-19T10:37:42;-21655.41;;;31.15;92.59
22261;BME280;11299;43.202;27.920;2023-06-19T10:40:08;-21661.44;;;31.35;88.87
22261;BME280;11299;43.202;27.920;2023-06-19T10:42:40;-21664.38;;;31.44;86.06
22261;BME280;11299;43.202;27.920;2023-06-19T10:45:09;-21659.41;;;31.28;84.10
22261;BME280;11299;43.202;27.920;2023-06-19T10:47:37;-21674.69;;;31.78;83.63
22261;BME280;11299;43.202;27.920;2023-06-19T10:50:03;-21669.59;;;31.62;84.30
22261;BME280;11299;43.202;27.920;2023-06-19T10:52:30;-21680.88;;;31.98;80.60
22261;BME280;11299;43.202;27.920;2023-06-19T10:54:56;-21688.25;;;32.22;79.63
22261;BME280;11299;43.202;27.920;2023-06-19T10:57:29;-21700.75;;;32.63;77.16
22261;BME280;11299;43.202;27.920;2023-06-19T10:59:55;-21695.22;;;32.45;77.39
22261;BME280;11299;43.202;27.920;2023-06-19T11:02:22;-21723.38;;;33.37;77.35
22261;BME280;11299;43.202;27.920;2023-06-19T11:04:47;-21733.84;;;33.71;75.88
22261;BME280;11299;43.202;27.920;2023-06-19T11:07:13;-21711.84;;;32.99;72.14
22261;BME280;11299;43.202;27.920;2023-06-19T11:09:38;-21710.91;;;32.96;73.60
22261;BME280;11299;43.202;27.920;2023-06-19T11:12:04;-21717.22;;;33.17;75.28
22261;BME280;11299;43.202;27.920;2023-06-19T11:14:33;-21721.38;;;33.31;70.11
22261;BME280;11299;43.202;27.920;2023-06-19T11:17:07;-21725.69;;;33.45;70.99
22261;BME280;11299;43.202;27.920;2023-06-19T11:19:32;-21717.06;;;33.16;69.93
22261;BME280;11299;43.202;27.920;2023-06-19T11:22:03;-21696.13;;;32.48;70.69
22261;BME280;11299;43.202;27.920;2023-06-19T11:24:29;-21712.16;;;33.00;69.34
22261;BME280;11299;43.202;27.920;2023-06-19T11:26:56;-21710.63;;;32.95;71.60
22261;BME280;11299;43.202;27.920;2023-06-19T11:29:30;-21712.16;;;33.00;70.49
22261;BME280;11299;43.202;27.920;2023-06-19T11:32:09;-21705.22;;;32.78;70.62
22261;BME280;11299;43.202;27.920;2023-06-19T11:34:36;-21701.69;;;32.66;72.92
22261;BME280;11299;43.202;27.920;2023-06-19T11:37:15;-21698.59;;;32.56;73.52
22261;BME280;11299;43.202;27.920;2023-06-19T11:39:43;-21687.19;;;32.19;74.33
22261;BME280;11299;43.202;27.920;2023-06-19T11:42:09;-21710.00;;;32.93;74.32
22261;BME280;11299;43.202;27.920;2023-06-19T11:44:34;-21699.50;;;32.59;75.20
22261;BME280;11299;43.202;27.920;2023-06-19T11:47:00;-21682.72;;;32.04;74.54
22261;BME280;11299;43.202;27.920;2023-06-19T11:49:26;-21701.38;;;32.65;75.51
22261;BME280;11299;43.202;27.920;2023-06-19T11:51:51;-21698.91;;;32.57;73.93
22261;BME280;11299;43.202;27.920;2023-06-19T11:54:18;-21695.66;;;32.47;76.05
22261;BME280;11299;43.202;27.920;2023-06-19T11:56:44;-21689.66;;;32.27;75.54
22261;BME280;11299;43.202;27.920;2023-06-19T11:59:09;-21687.19;;;32.19;72.68
22261;BME280;11299;43.202;27.920;2023-06-19T12:01:36;-21685.66;;;32.14;74.53
22261;BME280;11299;43.202;27.920;2023-06-19T12:04:02;-21681.19;;;31.99;74.76
22261;BME280;11299;43.202;27.920;2023-06-19T12:06:28;-21683.19;;;32.06;73.11
22261;BME280;11299;43.202;27.920;2023-06-19T12:08:54;-21671.75;;;31.69;72.19
22261;BME280;11299;43.202;27.920;2023-06-19T12:11:19;-21680.56;;;31.97;73.49
22261;BME280;11299;43.202;27.920;2023-06-19T12:13:45;-21678.56;;;31.91;71.74
22261;BME280;11299;43.202;27.920;2023-06-19T12:16:11;-21666.06;;;31.50;73.48
22261;BME280;11299;43.202;27.920;2023-06-19T12:18:36;-21659.88;;;31.30;75.02
22261;BME280;11299;43.202;27.920;2023-06-19T12:21:02;-21680.72;;;31.98;75.89
22261;BME280;11299;43.202;27.920;2023-06-19T12:23:29;-21695.50;;;32.46;73.65
22261;BME280;11299;43.202;27.920;2023-06-19T12:25:55;-21700.13;;;32.61;72.01
22261;BME280;11299;43.202;27.920;2023-06-19T12:28:20;-21696.28;;;32.49;72.01
22261;BME280;11299;43.202;27.920;2023-06-19T12:30:46;-21669.31;;;31.61;72.04
22261;BME280;11299;43.202;27.920;2023-06-19T12:33:13;-21674.84;;;31.79;72.57
22261;BME280;11299;43.202;27.920;2023-06-19T12:35:40;-21682.72;;;32.04;74.48
22261;BME280;11299;43.202;27.920;2023-06-19T12:38:06;-21693.03;;;32.38;75.21